sensor_id;sensor_type;location;lat;lon;timestamp;temperature;humidity
6879;DHT22;3478;51.462;7.338;2023-11-21T00:05:00;8.30;99.90
6879;DHT22;3478;51.462;7.338;2023-11-21T00:10:05;8.30;99.90
6879;DHT22;3478;51.462;7.338;2023-11-21T00:15:09;8.30;99.90
6879;DHT22;3478;51.462;7.338;2023-11-21T00:20:12;8.40;99.90
6879;DHT22;3478;51.462;7.338;2023-11-21T00:25:15;8.40;99.90
6879;DHT22;3478;51.462;7.338;2023-11-21T00:30:18;8.30;99.90
6879;DHT22;3478;51.462;7.338;2023-11-21T00:35:20;8.30;99.90
6879;DHT22;3478;51.462;7.338;2023-11-21T00:40:23;8.30;99.90
6879;DHT22;3478;51.462;7.338;2023-11-21T00:45:25;8.30;99.90
6879;DHT22;3478;51.462;7.338;2023-11-21T00:50:27;8.40;99.90
6879;DHT22;3478;51.462;7.338;2023-11-21T00:55:30;8.40;99.90
6879;DHT22;3478;51.462;7.338;2023-11-21T01:00:32;8.40;99.90
6879;DHT22;3478;51.462;7.338;2023-11-21T01:05:34;8.40;99.90
6879;DHT22;3478;51.462;7.338;2023-11-21T01:10:37;8.40;99.90
6879;DHT22;3478;51.462;7.338;2023-11-21T01:15:40;8.40;99.90
6879;DHT22;3478;51.462;7.338;2023-11-21T01:20:42;8.40;99.90
6879;DHT22;3478;51.462;7.338;2023-11-21T01:25:45;8.40;99.90
6879;DHT22;3478;51.462;7.338;2023-11-21T01:30:48;8.30;99.90
6879;DHT22;3478;51.462;7.338;2023-11-21T01:35:49;8.30;99.90
6879;DHT22;3478;51.462;7.338;2023-11-21T01:40:55;8.30;99.90
6879;DHT22;3478;51.462;7.338;2023-11-21T01:45:57;8.30;99.90
6879;DHT22;3478;51.462;7.338;2023-11-21T01:50:59;8.30;99.90
6879;DHT22;3478;51.462;7.338;2023-11-21T01:56:03;8.20;99.90
6879;DHT22;3478;51.462;7.338;2023-11-21T02:01:05;8.20;99.90
6879;DHT22;3478;51.462;7.338;2023-11-21T02:06:08;8.20;99.90
6879;DHT22;3478;51.462;7.338;2023-11-21T02:11:11;8.20;99.90
6879;DHT22;3478;51.462;7.338;2023-11-21T02:16:14;8.10;99.90
6879;DHT22;3478;51.462;7.338;2023-11-21T02:21:16;8.10;99.90
6879;DHT22;3478;51.462;7.338;2023-11-21T02:26:19;8.10;99.90
6879;DHT22;3478;51.462;7.338;2023-11-21T02:31:21;8.10;99.90
6879;DHT22;3478;51.462;7.338;2023-11-21T02:36:23;8.10;99.90
6879;DHT22;3478;51.462;7.338;2023-11-21T02:41:27;8.10;99.90
6879;DHT22;3478;51.462;7.338;2023-11-21T02:46:30;8.00;99.90
6879;DHT22;3478;51.462;7.338;2023-11-21T02:51:32;8.10;99.90
6879;DHT22;3478;51.462;7.338;2023-11-21T02:56:35;8.10;99.90
6879;DHT22;3478;51.462;7.338;2023-11-21T03:01:37;8.00;99.90
6879;DHT22;3478;51.462;7.338;2023-11-21T03:06:39;8.10;99.90
6879;DHT22;3478;51.462;7.338;2023-11-21T03:11:42;8.10;99.90
6879;DHT22;3478;51.462;7.338;2023-11-21T03:16:44;8.10;99.90
6879;DHT22;3478;51.462;7.338;2023-11-21T03:21:46;8.20;99.90
6879;DHT22;3478;51.462;7.338;2023-11-21T03:26:49;8.20;99.90
6879;DHT22;3478;51.462;7.338;2023-11-21T03:31:51;8.10;99.90
6879;DHT22;3478;51.462;7.338;2023-11-21T03:36:53;8.20;99.90
6879;DHT22;3478;51.462;7.338;2023-11-21T03:41:56;8.20;99.90
6879;DHT22;3478;51.462;7.338;2023-11-21T03:46:58;8.20;99.90
6879;DHT22;3478;51.462;7.338;2023-11-21T03:52:01;8.20;99.90
6879;DHT22;3478;51.462;7.338;2023-11-21T03:57:04;8.20;99.90
6879;DHT22;3478;51.462;7.338;2023-11-21T04:02:06;8.20;99.90
6879;DHT22;3478;51.462;7.338;2023-11-21T04:07:08;8.20;99.90
6879;DHT22;3478;51.462;7.338;2023-11-21T04:12:12;8.20;99.90
6879;DHT22;3478;51.462;7.338;2023-11-21T04:17:18;8.20;99.90
6879;DHT22;3478;51.462;7.338;2023-11-21T04:22:19;8.20;99.90
6879;DHT22;3478;51.462;7.338;2023-11-21T04:27:23;8.20;99.90
6879;DHT22;3478;51.462;7.338;2023-11-21T04:32:24;8.20;99.90
6879;DHT22;3478;51.462;7.338;2023-11-21T04:37:26;8.20;99.90
6879;DHT22;3478;51.462;7.338;2023-11-21T04:42:29;8.20;99.90
6879;DHT22;3478;51.462;7.338;2023-11-21T04:47:31;8.10;99.90
6879;DHT22;3478;51.462;7.338;2023-11-21T04:52:33;8.10;99.90
6879;DHT22;3478;51.462;7.338;2023-11-21T04:57:36;8.10;99.90
6879;DHT22;3478;51.462;7.338;2023-11-21T05:02:38;8.00;99.90
6879;DHT22;3478;51.462;7.338;2023-11-21T05:07:40;8.10;99.90
6879;DHT22;3478;51.462;7.338;2023-11-21T05:12:44;8.00;99.90
6879;DHT22;3478;51.462;7.338;2023-11-21T05:17:47;8.00;99.90
6879;DHT22;3478;51.462;7.338;2023-11-21T05:22:50;7.90;99.90
6879;DHT22;3478;51.462;7.338;2023-11-21T05:27:53;7.80;99.90
6879;DHT22;3478;51.462;7.338;2023-11-21T05:32:56;7.80;99.90
6879;DHT22;3478;51.462;7.338;2023-11-21T05:37:57;7.80;99.90
6879;DHT22;3478;51.462;7.338;2023-11-21T05:43:01;7.90;99.90
6879;DHT22;3478;51.462;7.338;2023-11-21T05:48:02;7.90;99.90
6879;DHT22;3478;51.462;7.338;2023-11-21T05:53:05;7.90;99.90
6879;DHT22;3478;51.462;7.338;2023-11-21T05:58:08;8.00;99.90
6879;DHT22;3478;51.462;7.338;2023-11-21T06:03:10;8.00;99.90
6879;DHT22;3478;51.462;7.338;2023-11-21T06:08:12;8.00;99.90
6879;DHT22;3478;51.462;7.338;2023-11-21T06:13:18;8.00;99.90
6879;DHT22;3478;51.462;7.338;2023-11-21T06:18:24;8.00;99.90
6879;DHT22;3478;51.462;7.338;2023-11-21T06:23:26;8.00;99.90
6879;DHT22;3478;51.462;7.338;2023-11-21T06:28:29;8.00;99.90
6879;DHT22;3478;51.462;7.338;2023-11-21T06:33:31;8.00;99.90
6879;DHT22;3478;51.462;7.338;2023-11-21T06:38:33;7.90;99.90
6879;DHT22;3478;51.462;7.338;2023-11-21T06:43:36;7.90;99.90
6879;DHT22;3478;51.462;7.338;2023-11-21T06:48:38;7.90;99.90
6879;DHT22;3478;51.462;7.338;2023-11-21T06:53:40;7.80;99.90
6879;DHT22;3478;51.462;7.338;2023-11-21T06:58:43;7.70;99.90
6879;DHT22;3478;51.462;7.338;2023-11-21T07:03:46;7.80;99.90
6879;DHT22;3478;51.462;7.338;2023-11-21T07:08:48;7.80;99.90
6879;DHT22;3478;51.462;7.338;2023-11-21T07:13:51;7.80;99.90
6879;DHT22;3478;51.462;7.338;2023-11-21T07:18:53;7.80;99.90
6879;DHT22;3478;51.462;7.338;2023-11-21T07:23:55;7.90;99.90
6879;DHT22;3478;51.462;7.338;2023-11-21T07:28:58;7.90;99.90
6879;DHT22;3478;51.462;7.338;2023-11-21T07:34:00;7.90;99.90
6879;DHT22;3478;51.462;7.338;2023-11-21T07:39:02;8.00;99.90
6879;DHT22;3478;51.462;7.338;2023-11-21T07:44:06;8.10;99.90
6879;DHT22;3478;51.462;7.338;2023-11-21T07:49:08;8.20;99.90
6879;DHT22;3478;51.462;7.338;2023-11-21T07:54:10;8.10;99.90
6879;DHT22;3478;51.462;7.338;2023-11-21T07:59:13;8.20;99.90
6879;DHT22;3478;51.462;7.338;2023-11-21T08:04:15;8.20;99.90
6879;DHT22;3478;51.462;7.338;2023-11-21T08:09:16;8.40;99.90
6879;DHT22;3478;51.462;7.338;2023-11-21T08:14:20;8.50;99.90
6879;DHT22;3478;51.462;7.338;2023-11-21T08:19:21;8.50;99.90
6879;DHT22;3478;51.462;7.338;2023-11-21T08:24:25;8.60;99.90
6879;DHT22;3478;51.462;7.338;2023-11-21T08:29:29;8.70;99.90
6879;DHT22;3478;51.462;7.338;2023-11-21T08:34:32;8.60;99.90
6879;DHT22;3478;51.462;7.338;2023-11-21T08:39:33;8.70;99.90
6879;DHT22;3478;51.462;7.338;2023-11-21T08:44:37;8.70;99.90
6879;DHT22;3478;51.462;7.338;2023-11-21T08:49:39;8.80;99.90
6879;DHT22;3478;51.462;7.338;2023-11-21T08:54:41;8.80;99.90
6879;DHT22;3478;51.462;7.338;2023-11-21T08:59:45;8.80;99.90
6879;DHT22;3478;51.462;7.338;2023-11-21T09:04:47;8.80;99.90
6879;DHT22;3478;51.462;7.338;2023-11-21T09:09:49;8.90;99.90
6879;DHT22;3478;51.462;7.338;2023-11-21T09:14:52;8.90;99.90
6879;DHT22;3478;51.462;7.338;2023-11-21T09:19:54;8.90;99.90
6879;DHT22;3478;51.462;7.338;2023-11-21T09:24:57;9.00;99.90
6879;DHT22;3478;51.462;7.338;2023-11-21T09:30:00;9.10;99.90
6879;DHT22;3478;51.462;7.338;2023-11-21T09:35:02;9.20;99.90
6879;DHT22;3478;51.462;7.338;2023-11-21T09:40:06;9.30;99.90
6879;DHT22;3478;51.462;7.338;2023-11-21T09:45:18;9.40;99.90
6879;DHT22;3478;51.462;7.338;2023-11-21T09:50:24;9.50;99.90
6879;DHT22;3478;51.462;7.338;2023-11-21T09:55:27;9.50;99.90
6879;DHT22;3478;51.462;7.338;2023-11-21T10:00:32;9.60;99.90
6879;DHT22;3478;51.462;7.338;2023-11-21T10:05:35;9.60;99.90
6879;DHT22;3478;51.462;7.338;2023-11-21T10:10:37;9.70;99.90
6879;DHT22;3478;51.462;7.338;2023-11-21T10:15:43;9.70;99.90
6879;DHT22;3478;51.462;7.338;2023-11-21T10:20:49;9.80;99.90
6879;DHT22;3478;51.462;7.338;2023-11-21T10:25:53;9.80;99.90
6879;DHT22;3478;51.462;7.338;2023-11-21T10:30:56;9.90;99.90
6879;DHT22;3478;51.462;7.338;2023-11-21T10:35:58;10.00;99.90
6879;DHT22;3478;51.462;7.338;2023-11-21T10:41:02;9.90;99.90
6879;DHT22;3478;51.462;7.338;2023-11-21T10:46:09;10.10;99.90
6879;DHT22;3478;51.462;7.338;2023-11-21T10:51:10;10.30;99.90
6879;DHT22;3478;51.462;7.338;2023-11-21T10:56:14;10.50;99.90
6879;DHT22;3478;51.462;7.338;2023-11-21T11:01:19;10.50;99.90
6879;DHT22;3478;51.462;7.338;2023-11-21T11:06:24;10.40;99.90
6879;DHT22;3478;51.462;7.338;2023-11-21T11:11:28;10.30;67.30
6879;DHT22;3478;51.462;7.338;2023-11-21T11:16:33;10.20;99.90
6879;DHT22;3478;51.462;7.338;2023-11-21T11:21:44;10.30;99.90
6879;DHT22;3478;51.462;7.338;2023-11-21T11:26:55;10.50;99.90
6879;DHT22;3478;51.462;7.338;2023-11-21T11:32:08;10.50;77.10
6879;DHT22;3478;51.462;7.338;2023-11-21T11:37:12;10.50;90.30
6879;DHT22;3478;51.462;7.338;2023-11-21T11:42:16;10.50;93.20
6879;DHT22;3478;51.462;7.338;2023-11-21T11:47:24;10.40;49.40
6879;DHT22;3478;51.462;7.338;2023-11-21T11:52:38;10.30;99.90
6879;DHT22;3478;51.462;7.338;2023-11-21T11:57:42;10.30;99.90
6879;DHT22;3478;51.462;7.338;2023-11-21T12:02:47;10.30;99.90
6879;DHT22;3478;51.462;7.338;2023-11-21T12:07:51;10.30;99.90
6879;DHT22;3478;51.462;7.338;2023-11-21T12:12:55;10.20;99.90
6879;DHT22;3478;51.462;7.338;2023-11-21T12:17:59;10.10;99.90
6879;DHT22;3478;51.462;7.338;2023-11-21T12:23:01;10.10;99.90
6879;DHT22;3478;51.462;7.338;2023-11-21T12:28:03;10.10;99.90
6879;DHT22;3478;51.462;7.338;2023-11-21T12:33:07;10.10;99.90
6879;DHT22;3478;51.462;7.338;2023-11-21T12:38:09;10.10;99.90
6879;DHT22;3478;51.462;7.338;2023-11-21T12:43:11;10.10;99.90
6879;DHT22;3478;51.462;7.338;2023-11-21T12:48:15;10.10;99.90
6879;DHT22;3478;51.462;7.338;2023-11-21T12:53:23;10.20;99.90
6879;DHT22;3478;51.462;7.338;2023-11-21T12:58:25;10.20;99.90
6879;DHT22;3478;51.462;7.338;2023-11-21T13:03:28;10.10;99.90
6879;DHT22;3478;51.462;7.338;2023-11-21T13:08:30;10.00;99.90
6879;DHT22;3478;51.462;7.338;2023-11-21T13:13:33;10.00;99.90
6879;DHT22;3478;51.462;7.338;2023-11-21T13:18:37;9.90;99.90
6879;DHT22;3478;51.462;7.338;2023-11-21T13:23:41;9.80;99.90
6879;DHT22;3478;51.462;7.338;2023-11-21T13:28:43;9.70;99.90
6879;DHT22;3478;51.462;7.338;2023-11-21T13:33:49;9.70;99.90
6879;DHT22;3478;51.462;7.338;2023-11-21T13:38:55;9.70;99.90
6879;DHT22;3478;51.462;7.338;2023-11-21T13:43:59;9.70;99.90
6879;DHT22;3478;51.462;7.338;2023-11-21T13:49:16;9.70;99.90
6879;DHT22;3478;51.462;7.338;2023-11-21T13:54:20;9.70;99.90
6879;DHT22;3478;51.462;7.338;2023-11-21T13:59:24;9.70;99.90
6879;DHT22;3478;51.462;7.338;2023-11-21T14:04:30;9.60;99.90
6879;DHT22;3478;51.462;7.338;2023-11-21T14:09:53;9.60;99.90
6879;DHT22;3478;51.462;7.338;2023-11-21T14:14:55;9.70;99.90
6879;DHT22;3478;51.462;7.338;2023-11-21T14:19:58;9.60;99.90
6879;DHT22;3478;51.462;7.338;2023-11-21T14:25:02;9.60;99.90
6879;DHT22;3478;51.462;7.338;2023-11-21T14:30:05;9.60;99.90
6879;DHT22;3478;51.462;7.338;2023-11-21T14:35:09;9.60;99.90
6879;DHT22;3478;51.462;7.338;2023-11-21T14:40:12;9.60;99.90
6879;DHT22;3478;51.462;7.338;2023-11-21T14:45:16;9.60;99.90
6879;DHT22;3478;51.462;7.338;2023-11-21T14:50:22;9.50;99.90
6879;DHT22;3478;51.462;7.338;2023-11-21T14:55:46;9.50;99.90
6879;DHT22;3478;51.462;7.338;2023-11-21T15:00:58;9.40;99.90
6879;DHT22;3478;51.462;7.338;2023-11-21T15:06:04;9.30;99.90
6879;DHT22;3478;51.462;7.338;2023-11-21T15:11:19;9.30;99.90
6879;DHT22;3478;51.462;7.338;2023-11-21T15:16:25;9.30;99.90
6879;DHT22;3478;51.462;7.338;2023-11-21T15:21:28;9.30;99.90
6879;DHT22;3478;51.462;7.338;2023-11-21T15:26:30;9.10;61.20
6879;DHT22;3478;51.462;7.338;2023-11-21T15:31:32;9.10;62.70
6879;DHT22;3478;51.462;7.338;2023-11-21T15:36:35;9.10;7.60
6879;DHT22;3478;51.462;7.338;2023-11-21T15:41:38;9.10;42.20
6879;DHT22;3478;51.462;7.338;2023-11-21T15:46:42;8.90;40.30
6879;DHT22;3478;51.462;7.338;2023-11-21T15:51:45;8.80;95.50
6879;DHT22;3478;51.462;7.338;2023-11-21T15:56:47;8.70;99.90
6879;DHT22;3478;51.462;7.338;2023-11-21T16:01:49;8.50;99.90
6879;DHT22;3478;51.462;7.338;2023-11-21T16:06:53;8.50;99.90
6879;DHT22;3478;51.462;7.338;2023-11-21T16:11:54;8.40;89.90
6879;DHT22;3478;51.462;7.338;2023-11-21T16:17:01;8.30;95.90
6879;DHT22;3478;51.462;7.338;2023-11-21T16:22:04;8.20;99.90
6879;DHT22;3478;51.462;7.338;2023-11-21T16:27:07;8.20;41.50
6879;DHT22;3478;51.462;7.338;2023-11-21T16:32:10;8.00;1.00
6879;DHT22;3478;51.462;7.338;2023-11-21T16:37:13;7.90;1.00
6879;DHT22;3478;51.462;7.338;2023-11-21T16:42:15;7.70;7.40
6879;DHT22;3478;51.462;7.338;2023-11-21T16:47:17;7.70;64.80
6879;DHT22;3478;51.462;7.338;2023-11-21T16:52:21;7.70;1.00
6879;DHT22;3478;51.462;7.338;2023-11-21T16:57:23;7.60;1.00
6879;DHT22;3478;51.462;7.338;2023-11-21T17:02:25;7.60;11.50
6879;DHT22;3478;51.462;7.338;2023-11-21T17:07:28;7.70;1.00
6879;DHT22;3478;51.462;7.338;2023-11-21T17:12:30;7.60;1.00
6879;DHT22;3478;51.462;7.338;2023-11-21T17:17:32;7.60;1.00
6879;DHT22;3478;51.462;7.338;2023-11-21T17:22:35;7.60;1.00
6879;DHT22;3478;51.462;7.338;2023-11-21T17:27:37;7.60;1.00
6879;DHT22;3478;51.462;7.338;2023-11-21T17:32:39;7.50;1.00
6879;DHT22;3478;51.462;7.338;2023-11-21T17:37:42;7.50;1.00
6879;DHT22;3478;51.462;7.338;2023-11-21T17:42:44;7.40;5.00
6879;DHT22;3478;51.462;7.338;2023-11-21T17:47:46;7.40;1.00
6879;DHT22;3478;51.462;7.338;2023-11-21T17:52:49;7.30;16.50
6879;DHT22;3478;51.462;7.338;2023-11-21T17:57:51;7.20;99.90
6879;DHT22;3478;51.462;7.338;2023-11-21T18:02:53;7.10;7.10
6879;DHT22;3478;51.462;7.338;2023-11-21T18:07:56;7.10;3.00
6879;DHT22;3478;51.462;7.338;2023-11-21T18:12:58;7.00;1.00
6879;DHT22;3478;51.462;7.338;2023-11-21T18:18:00;7.00;1.00
6879;DHT22;3478;51.462;7.338;2023-11-21T18:23:03;7.10;1.00
6879;DHT22;3478;51.462;7.338;2023-11-21T18:28:05;7.10;1.00
6879;DHT22;3478;51.462;7.338;2023-11-21T18:33:08;7.10;1.00
6879;DHT22;3478;51.462;7.338;2023-11-21T18:38:12;7.00;1.00
6879;DHT22;3478;51.462;7.338;2023-11-21T18:43:14;7.00;1.00
6879;DHT22;3478;51.462;7.338;2023-11-21T18:48:15;7.10;1.00
6879;DHT22;3478;51.462;7.338;2023-11-21T18:53:21;7.10;1.00
6879;DHT22;3478;51.462;7.338;2023-11-21T18:58:23;7.00;1.00
6879;DHT22;3478;51.462;7.338;2023-11-21T19:03:25;7.00;1.00
6879;DHT22;3478;51.462;7.338;2023-11-21T19:08:28;6.90;1.00
6879;DHT22;3478;51.462;7.338;2023-11-21T19:13:31;6.90;1.00
6879;DHT22;3478;51.462;7.338;2023-11-21T19:18:32;6.90;1.00
6879;DHT22;3478;51.462;7.338;2023-11-21T19:23:36;6.90;1.00
6879;DHT22;3478;51.462;7.338;2023-11-21T19:28:38;6.80;1.00
6879;DHT22;3478;51.462;7.338;2023-11-21T19:33:40;6.70;1.00
6879;DHT22;3478;51.462;7.338;2023-11-21T19:38:43;6.80;1.00
6879;DHT22;3478;51.462;7.338;2023-11-21T19:43:46;6.80;1.00
6879;DHT22;3478;51.462;7.338;2023-11-21T19:48:49;6.80;1.00
6879;DHT22;3478;51.462;7.338;2023-11-21T19:53:54;6.80;1.00
6879;DHT22;3478;51.462;7.338;2023-11-21T19:58:56;6.80;1.00
6879;DHT22;3478;51.462;7.338;2023-11-21T20:03:58;6.80;1.00
6879;DHT22;3478;51.462;7.338;2023-11-21T20:09:01;6.80;1.00
6879;DHT22;3478;51.462;7.338;2023-11-21T20:14:04;6.80;1.00
6879;DHT22;3478;51.462;7.338;2023-11-21T20:19:06;6.70;1.00
6879;DHT22;3478;51.462;7.338;2023-11-21T20:24:10;6.60;1.00
6879;DHT22;3478;51.462;7.338;2023-11-21T20:29:13;6.60;1.00
6879;DHT22;3478;51.462;7.338;2023-11-21T20:34:15;6.60;1.00
6879;DHT22;3478;51.462;7.338;2023-11-21T20:39:18;6.70;1.00
6879;DHT22;3478;51.462;7.338;2023-11-21T20:44:21;6.70;1.00
6879;DHT22;3478;51.462;7.338;2023-11-21T20:49:23;6.80;1.00
6879;DHT22;3478;51.462;7.338;2023-11-21T20:54:26;6.80;1.00
6879;DHT22;3478;51.462;7.338;2023-11-21T20:59:28;6.90;99.90
6879;DHT22;3478;51.462;7.338;2023-11-21T21:04:30;7.00;99.90
6879;DHT22;3478;51.462;7.338;2023-11-21T21:09:34;7.00;75.30
6879;DHT22;3478;51.462;7.338;2023-11-21T21:14:37;7.00;67.90
6879;DHT22;3478;51.462;7.338;2023-11-21T21:19:39;7.00;2.00
6879;DHT22;3478;51.462;7.338;2023-11-21T21:24:42;7.00;35.90
6879;DHT22;3478;51.462;7.338;2023-11-21T21:29:44;7.00;1.00
6879;DHT22;3478;51.462;7.338;2023-11-21T21:34:46;7.00;99.90
6879;DHT22;3478;51.462;7.338;2023-11-21T21:39:49;6.90;99.90
6879;DHT22;3478;51.462;7.338;2023-11-21T21:44:51;6.90;1.00
6879;DHT22;3478;51.462;7.338;2023-11-21T21:49:53;6.90;11.10
6879;DHT22;3478;51.462;7.338;2023-11-21T21:54:56;6.90;1.00
6879;DHT22;3478;51.462;7.338;2023-11-21T21:59:58;6.90;99.90
6879;DHT22;3478;51.462;7.338;2023-11-21T22:05:00;6.90;1.00
6879;DHT22;3478;51.462;7.338;2023-11-21T22:10:04;7.00;1.00
6879;DHT22;3478;51.462;7.338;2023-11-21T22:15:07;6.90;99.90
6879;DHT22;3478;51.462;7.338;2023-11-21T22:20:10;6.90;99.90
6879;DHT22;3478;51.462;7.338;2023-11-21T22:25:14;6.90;1.00
6879;DHT22;3478;51.462;7.338;2023-11-21T22:30:16;6.80;1.00
6879;DHT22;3478;51.462;7.338;2023-11-21T22:35:18;6.90;1.00
6879;DHT22;3478;51.462;7.338;2023-11-21T22:40:21;6.80;99.90
6879;DHT22;3478;51.462;7.338;2023-11-21T22:45:23;6.80;79.10
6879;DHT22;3478;51.462;7.338;2023-11-21T22:50:25;6.80;1.00
6879;DHT22;3478;51.462;7.338;2023-11-21T22:55:29;6.60;1.00
6879;DHT22;3478;51.462;7.338;2023-11-21T23:00:30;6.60;1.00
6879;DHT22;3478;51.462;7.338;2023-11-21T23:05:33;6.50;1.00
6879;DHT22;3478;51.462;7.338;2023-11-21T23:10:36;6.50;99.90
6879;DHT22;3478;51.462;7.338;2023-11-21T23:15:39;6.30;99.90
6879;DHT22;3478;51.462;7.338;2023-11-21T23:20:42;6.20;1.00
6879;DHT22;3478;51.462;7.338;2023-11-21T23:25:46;6.20;1.00
6879;DHT22;3478;51.462;7.338;2023-11-21T23:30:49;6.20;1.00
6879;DHT22;3478;51.462;7.338;2023-11-21T23:35:52;6.10;1.00
6879;DHT22;3478;51.462;7.338;2023-11-21T23:40:55;6.10;1.00
6879;DHT22;3478;51.462;7.338;2023-11-21T23:45:57;6.10;1.00
6879;DHT22;3478;51.462;7.338;2023-11-21T23:50:59;6.10;1.00
6879;DHT22;3478;51.462;7.338;2023-11-21T23:56:02;6.20;2.60
